Terminal Aerodrome Forecast
Issued by NWS

Home | Current Version | Previous Version | Text Only | Print | Product List | Glossary On
Versions: 1 2 3 4 5 6 7 8 9 10 11 12 13 14 15 16 17 18 19 20 21 22 23 24 25 26 27 28 29 30 31
000
FTUS45 KGJT 301122
TAFTEX
TAF
KTEX 301122Z 3012/0112 00000KT P6SM -SN VCSH BKN006 BKN013 OVC045
     FM301300 00000KT P6SM VCSH OVC020
     FM301800 27003KT P6SM VCSH BKN030
     FM302100 36004KT P6SM VCSH SCT030 BKN050
     FM010600 16003KT P6SM BKN100
     FM011000 13005KT P6SM -SHSN OVC040=

USA.gov is the U.S. government's official web portal to all federal, state and local government web resources and services.